createdAt,value
2018-11-22T00:00:36.763Z,26.75
2018-11-22T00:03:05.964Z,25.50
2018-11-22T00:05:34.364Z,25.82
2018-11-22T00:08:02.722Z,25.35
2018-11-22T00:10:32.029Z,26.05
2018-11-22T00:13:00.434Z,25.45
2018-11-22T00:15:28.809Z,26.40
2018-11-22T00:17:58.587Z,27.70
2018-11-22T00:20:27.426Z,27.60
2018-11-22T00:22:55.876Z,25.37
2018-11-22T00:25:24.172Z,27.20
2018-11-22T00:27:53.069Z,26.80
2018-11-22T00:30:22.026Z,27.67
2018-11-22T00:32:50.446Z,25.72
2018-11-22T00:35:18.578Z,25.48
2018-11-22T00:37:47.833Z,26.05
2018-11-22T00:40:17.771Z,24.80
2018-11-22T00:42:46.737Z,24.87
2018-11-22T00:45:16.046Z,27.10
2018-11-22T00:47:45.041Z,26.33
2018-11-22T00:50:14.150Z,25.65
2018-11-22T00:52:42.526Z,26.37
2018-11-22T00:55:12.603Z,26.82
2018-11-22T00:57:41.643Z,26.55
2018-11-22T01:00:15.018Z,28.55
2018-11-22T01:02:43.212Z,28.52
2018-11-22T01:05:12.380Z,31.75
2018-11-22T01:07:40.601Z,29.35
2018-11-22T01:10:10.995Z,29.75
2018-11-22T01:12:39.726Z,30.15
2018-11-22T01:15:08.218Z,30.70
2018-11-22T01:17:36.592Z,30.20
2018-11-22T01:20:05.468Z,31.75
2018-11-22T01:22:34.173Z,30.17
2018-11-22T01:25:02.555Z,29.67
2018-11-22T01:27:30.902Z,30.02
2018-11-22T01:29:59.732Z,31.15
2018-11-22T01:32:28.531Z,28.83
2018-11-22T01:34:56.906Z,31.07
2018-11-22T01:37:25.582Z,28.85
2018-11-22T01:39:54.394Z,31.60
2018-11-22T01:42:23.186Z,32.08
2018-11-22T01:44:51.875Z,31.40
2018-11-22T01:47:20.581Z,29.30
2018-11-22T01:49:48.462Z,31.17
2018-11-22T01:52:16.879Z,31.40
2018-11-22T01:54:45.606Z,31.30
2018-11-22T01:57:13.888Z,29.70
2018-11-22T01:59:42.181Z,30.55
2018-11-22T02:02:10.877Z,29.65
2018-11-22T02:04:39.214Z,29.98
2018-11-22T02:07:08.054Z,29.18
2018-11-22T02:09:36.940Z,27.37
2018-11-22T02:12:05.618Z,27.48
2018-11-22T02:14:34.429Z,27.87
2018-11-22T02:17:02.700Z,26.45
2018-11-22T02:19:31.500Z,26.50
2018-11-22T02:22:00.397Z,27.13
2018-11-22T02:24:28.859Z,24.55
2018-11-22T02:26:57.557Z,28.25
2018-11-22T02:29:25.944Z,26.48
2018-11-22T02:31:54.717Z,26.85
2018-11-22T02:34:23.525Z,26.52
2018-11-22T02:36:52.331Z,26.70
2018-11-22T02:39:20.706Z,27.87
2018-11-22T02:41:48.987Z,28.83
2018-11-22T02:44:17.670Z,27.45
2018-11-22T02:46:45.546Z,29.30
2018-11-22T02:49:13.502Z,28.05
2018-11-22T02:51:42.213Z,27.13
2018-11-22T02:54:10.588Z,26.85
2018-11-22T02:56:38.578Z,27.48
2018-11-22T02:59:06.930Z,27.32
2018-11-22T03:01:35.740Z,27.93
2018-11-22T03:04:04.196Z,26.93
2018-11-22T03:06:32.942Z,26.57
2018-11-22T03:09:01.290Z,27.32
2018-11-22T03:11:29.985Z,28.83
2018-11-22T03:13:58.355Z,28.23
2018-11-22T03:16:27.057Z,25.90
2018-11-22T03:19:14.910Z,26.48
2018-11-22T03:21:43.723Z,28.32
2018-11-22T03:24:12.482Z,27.07
2018-11-22T03:26:41.397Z,26.93
2018-11-22T03:29:09.277Z,26.95
2018-11-22T03:31:37.595Z,27.50
2018-11-22T03:34:05.405Z,26.12
2018-11-22T03:36:33.778Z,25.75
2018-11-22T03:39:02.492Z,25.23
2018-11-22T03:41:31.380Z,26.02
2018-11-22T03:43:59.813Z,23.00
2018-11-22T03:46:27.751Z,26.02
2018-11-22T03:48:56.111Z,23.67
2018-11-22T03:51:24.445Z,24.70
2018-11-22T03:53:52.774Z,25.02
2018-11-22T03:56:21.563Z,24.92
2018-11-22T03:58:50.391Z,25.88
2018-11-22T04:01:18.284Z,25.55
2018-11-22T04:03:46.199Z,25.52
2018-11-22T04:06:14.592Z,25.57
2018-11-22T04:08:43.383Z,25.17
2018-11-22T04:11:11.764Z,27.93
2018-11-22T04:13:40.205Z,26.17
2018-11-22T04:16:08.944Z,24.90
2018-11-22T04:18:37.726Z,24.10
2018-11-22T04:21:17.687Z,25.80
2018-11-22T04:23:46.056Z,25.82
2018-11-22T04:26:14.750Z,24.77
2018-11-22T04:28:43.042Z,26.48
2018-11-22T04:31:10.901Z,27.40
2018-11-22T04:33:39.595Z,27.25
2018-11-22T04:36:08.489Z,26.93
2018-11-22T04:38:36.870Z,25.92
2018-11-22T04:41:05.159Z,26.75
2018-11-22T04:43:33.223Z,28.02
2018-11-22T04:46:01.594Z,28.38
2018-11-22T04:48:30.398Z,28.85
2018-11-22T04:50:58.684Z,30.00
2018-11-22T04:53:27.480Z,30.45
2018-11-22T04:55:55.860Z,29.55
2018-11-22T04:58:24.137Z,29.45
2018-11-22T05:00:52.827Z,28.62
2018-11-22T05:03:21.721Z,28.07
2018-11-22T05:05:50.515Z,28.50
2018-11-22T05:08:18.792Z,27.58
2018-11-22T05:10:47.490Z,27.30
2018-11-22T05:13:15.953Z,28.90
2018-11-22T05:15:43.699Z,28.07
2018-11-22T05:18:11.636Z,28.02
2018-11-22T05:20:40.013Z,27.50
2018-11-22T05:23:08.756Z,29.32
2018-11-22T05:25:36.228Z,30.43
2018-11-22T05:28:05.247Z,30.80
2018-11-22T05:30:34.137Z,30.43
2018-11-22T05:33:02.517Z,30.50
2018-11-22T05:35:31.424Z,29.30
2018-11-22T05:37:59.367Z,30.27
2018-11-22T05:40:28.211Z,31.55
2018-11-22T05:42:57.407Z,31.82
2018-11-22T05:45:26.940Z,30.88
2018-11-22T05:47:55.334Z,31.60
2018-11-22T05:50:27.921Z,31.57
2018-11-22T05:52:57.358Z,32.67
2018-11-22T05:55:25.267Z,35.05
2018-11-22T05:57:54.131Z,30.02
2018-11-22T06:00:26.913Z,31.20
2018-11-22T06:02:55.546Z,30.68
2018-11-22T06:05:25.241Z,33.80
2018-11-22T06:07:54.110Z,32.45
2018-11-22T06:10:23.905Z,31.65
2018-11-22T06:12:53.619Z,31.27
2018-11-22T06:15:22.736Z,32.55
2018-11-22T12:17:18.318Z,25.17
2018-11-22T12:19:46.273Z,24.12
2018-11-22T12:22:14.282Z,22.20
2018-11-22T12:24:42.298Z,21.20
2018-11-22T12:27:10.308Z,20.82
2018-11-22T12:29:38.273Z,22.80
2018-11-22T12:32:11.118Z,21.05
2018-11-22T12:34:44.737Z,22.98
2018-11-22T12:37:18.190Z,23.65
2018-11-22T12:39:46.181Z,22.02
2018-11-22T12:42:14.224Z,23.70
2018-11-22T12:44:42.189Z,23.70
2018-11-22T12:47:10.186Z,23.15
2018-11-22T12:49:38.156Z,23.95
2018-11-22T12:52:06.123Z,23.70
2018-11-22T12:54:35.498Z,25.20
2018-11-22T12:57:03.838Z,24.70
2018-11-22T12:59:31.909Z,21.50
2018-11-22T13:01:59.952Z,21.60
2018-11-22T13:04:28.034Z,24.72
2018-11-22T13:06:56.143Z,24.98
2018-11-22T13:09:24.133Z,22.70
2018-11-22T13:11:52.148Z,24.55
2018-11-22T13:14:20.175Z,23.52
2018-11-22T13:16:48.208Z,24.82
2018-11-22T13:19:16.635Z,24.07
2018-11-22T13:21:44.643Z,24.98
2018-11-22T13:24:12.687Z,23.70
2018-11-22T13:26:40.655Z,22.98
2018-11-22T13:29:08.633Z,21.75
2018-11-22T13:31:36.672Z,22.87
2018-11-22T13:34:04.779Z,25.45
2018-11-22T13:36:32.761Z,21.60
2018-11-22T13:39:00.830Z,21.90
2018-11-22T13:41:28.885Z,22.60
2018-11-22T13:43:56.840Z,23.12
2018-11-22T13:46:24.784Z,26.07
2018-11-22T13:48:52.739Z,23.70
2018-11-22T13:51:20.802Z,26.12
2018-11-22T13:53:48.767Z,26.57
2018-11-22T13:56:16.710Z,22.90
2018-11-22T13:58:44.643Z,23.80
2018-11-22T14:01:12.627Z,24.05
2018-11-22T14:03:40.654Z,26.05
2018-11-22T14:06:08.604Z,25.37
2018-11-22T14:08:36.564Z,26.48
2018-11-22T14:11:05.155Z,24.70
2018-11-22T14:13:33.121Z,26.60
2018-11-22T14:16:01.116Z,24.77
2018-11-22T14:18:29.090Z,27.50
2018-11-22T14:20:57.103Z,25.40
2018-11-22T14:23:25.066Z,26.35
2018-11-22T14:25:53.091Z,26.70
2018-11-22T14:28:21.181Z,25.08
2018-11-22T14:30:49.180Z,26.97
2018-11-22T14:33:17.156Z,27.52
2018-11-22T14:35:45.239Z,26.33
2018-11-22T14:38:14.100Z,27.73
2018-11-22T14:40:42.196Z,25.85
2018-11-22T14:43:10.178Z,30.10
2018-11-22T14:45:38.167Z,28.10
2018-11-22T14:48:06.135Z,26.73
2018-11-22T14:50:38.067Z,25.60
2018-11-22T14:53:07.006Z,28.45
2018-11-22T14:55:35.097Z,28.80
2018-11-22T14:58:03.132Z,29.00
2018-11-22T15:00:31.125Z,30.00
2018-11-22T15:02:59.129Z,28.83
2018-11-22T15:05:27.109Z,29.37
2018-11-22T15:07:55.191Z,30.35
2018-11-22T15:10:23.215Z,29.27
2018-11-22T15:12:51.243Z,28.65
2018-11-22T15:15:20.730Z,30.60
2018-11-22T15:17:48.709Z,29.05
2018-11-22T15:20:17.983Z,29.70
2018-11-22T15:22:47.028Z,28.85
2018-11-22T15:25:17.612Z,26.75
2018-11-22T15:27:45.819Z,30.52
2018-11-22T15:30:15.641Z,26.90
2018-11-22T15:32:44.620Z,27.40
2018-11-22T15:35:14.761Z,29.95
2018-11-22T15:37:43.121Z,28.07
2018-11-22T15:40:13.757Z,31.23
2018-11-22T15:42:41.940Z,29.52
2018-11-22T15:45:11.754Z,27.20
2018-11-22T15:47:39.817Z,29.23
2018-11-22T15:50:09.144Z,29.72
2018-11-22T15:52:37.106Z,32.53
2018-11-22T15:55:05.676Z,33.98
2018-11-22T15:57:33.681Z,30.60
2018-11-22T16:00:02.723Z,28.27
2018-11-22T16:02:30.702Z,29.42
2018-11-22T16:04:58.767Z,31.25
2018-11-22T16:07:26.761Z,31.17
2018-11-22T16:09:54.818Z,34.15
2018-11-22T16:12:22.827Z,31.40
2018-11-22T16:14:50.804Z,28.52
2018-11-22T16:17:18.746Z,30.08
2018-11-22T16:19:46.742Z,29.25
2018-11-22T16:22:14.692Z,31.37
2018-11-22T16:24:42.736Z,29.48
2018-11-22T16:27:10.694Z,29.42
2018-11-22T16:29:38.630Z,29.55
2018-11-22T16:32:06.657Z,29.40
2018-11-22T16:34:34.654Z,27.58
2018-11-22T16:37:02.661Z,30.30
2018-11-22T16:39:30.663Z,31.48
2018-11-22T16:41:58.633Z,29.10
2018-11-22T16:44:26.617Z,32.08
2018-11-22T16:46:54.602Z,28.52
2018-11-22T16:49:22.664Z,29.15
2018-11-22T16:51:50.717Z,29.70
2018-11-22T16:54:18.716Z,28.20
2018-11-22T16:56:46.734Z,29.92
2018-11-22T16:59:14.742Z,30.20
2018-11-22T17:01:42.709Z,28.98
2018-11-22T17:04:10.686Z,29.77
2018-11-22T17:06:38.770Z,27.77
2018-11-22T17:09:07.833Z,28.35
2018-11-22T17:11:35.937Z,31.27
2018-11-22T17:14:03.959Z,30.65
2018-11-22T17:16:31.970Z,34.05
2018-11-22T17:18:59.972Z,34.25
2018-11-22T17:21:27.973Z,32.20
2018-11-22T17:23:55.973Z,33.30
2018-11-22T17:26:24.000Z,32.30
2018-11-22T17:28:51.977Z,32.42
2018-11-22T17:31:20.046Z,30.08
2018-11-22T17:33:48.034Z,30.10
2018-11-22T17:36:16.022Z,30.02
2018-11-22T17:38:44.089Z,32.03
2018-11-22T17:41:12.169Z,28.90
2018-11-22T17:43:40.161Z,30.15
2018-11-22T17:46:08.216Z,28.57
2018-11-22T17:48:36.191Z,27.93
2018-11-22T17:51:04.296Z,30.60
2018-11-22T17:53:32.281Z,31.75
2018-11-22T17:56:00.291Z,36.95
2018-11-22T17:58:28.393Z,32.45
2018-11-22T18:00:56.521Z,30.52
2018-11-22T18:03:24.522Z,29.40
2018-11-22T18:05:52.840Z,31.02
2018-11-22T18:08:21.010Z,32.03
2018-11-22T18:10:49.017Z,32.08
2018-11-22T18:13:17.056Z,30.95
2018-11-22T18:15:50.481Z,30.72
2018-11-22T18:18:18.503Z,28.98
2018-11-22T18:20:46.599Z,28.83
2018-11-22T18:23:14.595Z,29.80
2018-11-22T18:25:42.704Z,29.80
2018-11-22T18:28:10.783Z,30.08
2018-11-22T18:30:38.788Z,29.05
2018-11-22T18:33:07.773Z,30.02
2018-11-22T18:35:35.793Z,30.90
2018-11-22T18:38:03.998Z,31.48
2018-11-22T18:40:33.770Z,29.50
2018-11-22T18:43:02.623Z,29.07
2018-11-22T18:45:32.841Z,29.55
2018-11-22T18:48:01.474Z,31.35
2018-11-22T18:50:30.574Z,31.27
2018-11-22T18:52:58.618Z,29.90
2018-11-22T18:55:26.584Z,29.05
2018-11-22T18:57:54.654Z,30.02
2018-11-22T19:00:24.891Z,30.15
2018-11-22T19:02:53.857Z,31.75
2018-11-22T19:05:24.909Z,30.95
2018-11-22T19:07:53.802Z,29.55
2018-11-22T19:10:29.856Z,31.62
2018-11-22T19:13:00.226Z,29.95
2018-11-22T19:15:29.521Z,30.80
2018-11-22T19:17:57.569Z,31.77
2018-11-22T19:20:26.989Z,29.95
2018-11-22T19:22:55.878Z,31.42
2018-11-22T19:25:24.193Z,31.45
2018-11-22T19:27:53.156Z,29.85
2018-11-22T19:30:22.617Z,30.88
2018-11-22T19:32:51.564Z,30.72
2018-11-22T19:35:21.125Z,29.82
2018-11-22T19:37:49.365Z,33.20
2018-11-22T19:40:19.831Z,35.10
2018-11-22T19:42:49.151Z,33.05
2018-11-22T19:45:18.321Z,33.73
2018-11-22T19:47:46.692Z,32.03
2018-11-22T19:50:17.271Z,32.42
2018-11-22T19:52:45.792Z,33.35
2018-11-22T19:55:15.392Z,33.85
2018-11-22T19:57:44.624Z,33.28
2018-11-22T20:00:13.609Z,33.45
2018-11-22T20:02:42.229Z,33.48
2018-11-22T20:05:11.639Z,34.83
2018-11-22T20:07:40.082Z,36.85
2018-11-22T20:10:09.509Z,35.23
2018-11-22T20:12:37.589Z,34.70
2018-11-22T20:15:05.660Z,34.35
2018-11-22T20:17:33.664Z,35.50
2018-11-22T20:20:01.843Z,36.17
2018-11-22T20:22:29.798Z,32.65
2018-11-22T20:24:57.789Z,35.10
2018-11-22T20:27:25.908Z,35.28
2018-11-22T20:29:53.960Z,35.73
2018-11-22T20:32:22.015Z,32.67
2018-11-22T20:34:49.978Z,35.15
2018-11-22T20:37:18.333Z,36.10
2018-11-22T20:39:46.358Z,37.23
2018-11-22T20:42:14.392Z,39.08
2018-11-22T20:44:42.407Z,39.65
2018-11-22T20:47:10.417Z,39.78
2018-11-22T20:49:38.473Z,40.88
2018-11-22T20:52:06.498Z,41.58
2018-11-22T20:54:34.545Z,42.33
2018-11-22T20:57:02.573Z,45.23
2018-11-22T20:59:30.537Z,43.75
2018-11-22T21:01:58.537Z,42.43
2018-11-22T21:04:26.501Z,45.17
2018-11-22T21:06:54.492Z,41.75
2018-11-22T21:09:22.949Z,42.67
2018-11-22T21:11:50.965Z,44.60
2018-11-22T21:14:18.944Z,44.98
2018-11-22T21:16:46.949Z,39.78
2018-11-22T21:19:14.977Z,41.15
2018-11-22T21:21:43.095Z,41.20
2018-11-22T21:24:11.147Z,44.00
2018-11-22T21:26:39.142Z,42.83
2018-11-22T21:29:07.171Z,42.17
2018-11-22T21:31:35.217Z,44.03
2018-11-22T21:34:03.416Z,41.58
2018-11-22T21:36:31.396Z,39.63
2018-11-22T21:38:59.486Z,42.48
2018-11-22T21:41:27.572Z,41.08
2018-11-22T21:43:55.579Z,42.35
2018-11-22T21:46:29.132Z,40.35
2018-11-22T21:48:57.261Z,42.90
2018-11-22T21:51:25.296Z,42.30
2018-11-22T21:53:53.677Z,43.80
2018-11-22T21:56:21.765Z,40.20
2018-11-22T21:58:49.838Z,42.78
2018-11-22T22:01:17.853Z,44.10
2018-11-22T22:03:45.840Z,42.33
2018-11-22T22:06:13.830Z,43.13
2018-11-22T22:08:41.821Z,42.90
2018-11-22T22:11:09.818Z,45.92
2018-11-22T22:13:37.815Z,45.40
2018-11-22T22:16:05.896Z,45.55
2018-11-22T22:18:33.882Z,42.90
2018-11-22T22:21:01.896Z,44.35
2018-11-22T22:23:39.782Z,50.25
2018-11-22T22:26:07.829Z,49.80
2018-11-22T22:28:35.976Z,47.53
2018-11-22T22:31:03.998Z,49.38
2018-11-22T22:33:31.989Z,52.60
2018-11-22T22:36:00.039Z,48.85
2018-11-22T22:38:28.070Z,50.85
2018-11-22T22:40:56.060Z,53.10
2018-11-22T22:43:24.382Z,51.80
2018-11-22T22:45:52.465Z,52.05
2018-11-22T22:48:20.509Z,49.98
2018-11-22T22:50:48.597Z,49.53
2018-11-22T22:53:16.601Z,52.00
2018-11-22T22:58:38.314Z,48.52
2018-11-22T23:01:06.328Z,49.50
2018-11-22T23:03:34.393Z,49.80
2018-11-22T23:06:02.434Z,45.70
2018-11-22T23:08:30.460Z,50.23
2018-11-22T23:10:58.477Z,49.70
2018-11-22T23:13:26.577Z,49.73
2018-11-22T23:15:54.598Z,45.08
2018-11-22T23:18:22.580Z,48.48
2018-11-22T23:20:50.628Z,49.65
2018-11-22T23:23:18.627Z,47.38
2018-11-22T23:25:46.638Z,46.65
2018-11-22T23:28:14.658Z,44.33
2018-11-22T23:30:42.609Z,48.10
2018-11-22T23:33:10.640Z,47.80
2018-11-22T23:35:38.627Z,47.80
2018-11-22T23:38:06.673Z,46.53
2018-11-22T23:40:35.151Z,47.33
2018-11-22T23:43:03.180Z,44.35
2018-11-22T23:45:32.135Z,48.65
2018-11-22T23:48:00.208Z,48.63
2018-11-22T23:50:32.282Z,47.50
2018-11-22T23:53:01.477Z,46.90
2018-11-22T23:55:29.476Z,44.70
2018-11-22T23:57:57.519Z,45.17
